sensor_id;sensor_type;location;lat;lon;timestamp;pressure;altitude;pressure_sealevel;temperature;humidity
11648;BME280;5880;52.342;9.662;2023-03-20T00:01:15;101097.88;;;15.75;51.66
11648;BME280;5880;52.342;9.662;2023-03-20T00:03:41;101100.31;;;15.71;51.66
11648;BME280;5880;52.342;9.662;2023-03-20T00:06:22;101100.19;;;15.66;51.54
11648;BME280;5880;52.342;9.662;2023-03-20T00:08:51;101097.13;;;15.62;51.86
11648;BME280;5880;52.342;9.662;2023-03-20T00:11:28;101103.72;;;15.61;51.92
11648;BME280;5880;52.342;9.662;2023-03-20T00:14:11;101110.56;;;15.59;51.92
11648;BME280;5880;52.342;9.662;2023-03-20T00:16:43;101114.09;;;15.54;51.81
11648;BME280;5880;52.342;9.662;2023-03-20T00:19:25;101120.34;;;15.50;51.93
11648;BME280;5880;52.342;9.662;2023-03-20T00:21:53;101114.19;;;15.43;52.04
11648;BME280;5880;52.342;9.662;2023-03-20T00:24:19;101105.03;;;15.37;52.02
11648;BME280;5880;52.342;9.662;2023-03-20T00:26:48;101109.97;;;15.35;52.01
11648;BME280;5880;52.342;9.662;2023-03-20T00:29:25;101109.66;;;15.31;51.95
11648;BME280;5880;52.342;9.662;2023-03-20T00:31:53;101114.50;;;15.24;51.85
11648;BME280;5880;52.342;9.662;2023-03-20T00:34:22;101110.88;;;15.24;52.09
11648;BME280;5880;52.342;9.662;2023-03-20T00:36:49;101110.56;;;15.20;52.05
11648;BME280;5880;52.342;9.662;2023-03-20T00:39:15;101113.91;;;15.22;52.05
11648;BME280;5880;52.342;9.662;2023-03-20T00:41:59;101111.75;;;15.24;52.12
11648;BME280;5880;52.342;9.662;2023-03-20T00:44:27;101108.41;;;15.22;52.14
11648;BME280;5880;52.342;9.662;2023-03-20T00:47:05;101103.47;;;15.24;52.06
11648;BME280;5880;52.342;9.662;2023-03-20T00:49:35;101106.47;;;15.23;52.09
11648;BME280;5880;52.342;9.662;2023-03-20T00:52:04;101093.22;;;15.19;52.28
11648;BME280;5880;52.342;9.662;2023-03-20T00:54:30;101102.63;;;15.24;52.12
11648;BME280;5880;52.342;9.662;2023-03-20T00:57:04;101099.63;;;15.25;52.32
11648;BME280;5880;52.342;9.662;2023-03-20T01:00:04;101100.72;;;15.24;52.25
11648;BME280;5880;52.342;9.662;2023-03-20T01:02:32;101106.22;;;15.24;52.39
11648;BME280;5880;52.342;9.662;2023-03-20T01:04:59;101112.56;;;15.25;52.34
11648;BME280;5880;52.342;9.662;2023-03-20T01:07:26;101111.47;;;15.26;52.36
11648;BME280;5880;52.342;9.662;2023-03-20T01:09:52;101102.13;;;15.27;52.39
11648;BME280;5880;52.342;9.662;2023-03-20T01:12:18;101099.09;;;15.28;52.16
11648;BME280;5880;52.342;9.662;2023-03-20T01:14:49;101090.78;;;15.23;52.19
11648;BME280;5880;52.342;9.662;2023-03-20T01:17:20;101096.34;;;15.28;52.37
11648;BME280;5880;52.342;9.662;2023-03-20T01:19:46;101101.88;;;15.28;52.41
11648;BME280;5880;52.342;9.662;2023-03-20T01:22:12;101095.28;;;15.29;52.39
11648;BME280;5880;52.342;9.662;2023-03-20T01:24:39;101094.19;;;15.30;52.32
11648;BME280;5880;52.342;9.662;2023-03-20T01:27:14;101107.44;;;15.33;52.48
11648;BME280;5880;52.342;9.662;2023-03-20T01:29:40;101099.47;;;15.32;52.52
11648;BME280;5880;52.342;9.662;2023-03-20T01:32:17;101107.19;;;15.35;52.61
11648;BME280;5880;52.342;9.662;2023-03-20T01:34:43;101108.53;;;15.32;52.60
11648;BME280;5880;52.342;9.662;2023-03-20T01:37:22;101112.94;;;15.33;52.51
11648;BME280;5880;52.342;9.662;2023-03-20T01:39:48;101118.97;;;15.30;52.50
11648;BME280;5880;52.342;9.662;2023-03-20T01:42:15;101116.22;;;15.30;52.52
11648;BME280;5880;52.342;9.662;2023-03-20T01:44:41;101125.59;;;15.29;52.61
11648;BME280;5880;52.342;9.662;2023-03-20T01:47:18;101118.38;;;15.28;52.64
11648;BME280;5880;52.342;9.662;2023-03-20T01:52:27;101120.00;;;15.24;52.69
11648;BME280;5880;52.342;9.662;2023-03-20T01:54:53;101114.72;;;15.23;52.60
11648;BME280;5880;52.342;9.662;2023-03-20T01:57:22;101116.66;;;15.22;52.84
11648;BME280;5880;52.342;9.662;2023-03-20T01:59:56;101126.00;;;15.21;52.67
11648;BME280;5880;52.342;9.662;2023-03-20T02:02:29;101134.75;;;15.18;52.99
11648;BME280;5880;52.342;9.662;2023-03-20T02:05:01;101125.00;;;15.10;52.83
11648;BME280;5880;52.342;9.662;2023-03-20T02:07:29;101137.44;;;15.13;52.65
11648;BME280;5880;52.342;9.662;2023-03-20T02:09:57;101142.34;;;15.11;52.80
11648;BME280;5880;52.342;9.662;2023-03-20T02:12:24;101143.41;;;15.10;52.85
11648;BME280;5880;52.342;9.662;2023-03-20T02:14:50;101144.75;;;15.07;52.77
11648;BME280;5880;52.342;9.662;2023-03-20T02:17:17;101148.59;;;15.06;52.76
11648;BME280;5880;52.342;9.662;2023-03-20T02:20:06;101154.34;;;15.05;52.80
11648;BME280;5880;52.342;9.662;2023-03-20T02:23:31;101161.44;;;15.01;52.69
11648;BME280;5880;52.342;9.662;2023-03-20T02:26:34;101158.94;;;14.99;52.72
11648;BME280;5880;52.342;9.662;2023-03-20T02:44:05;101142.44;;;14.82;52.68
11648;BME280;5880;52.342;9.662;2023-03-20T02:55:42;101126.38;;;14.79;52.22
11648;BME280;5880;52.342;9.662;2023-03-20T03:04:00;101123.69;;;14.67;52.08
11648;BME280;5880;52.342;9.662;2023-03-20T03:06:35;101138.28;;;14.68;52.17
11648;BME280;5880;52.342;9.662;2023-03-20T03:09:17;101131.38;;;14.65;52.06
11648;BME280;5880;52.342;9.662;2023-03-20T03:11:52;101132.97;;;14.61;52.15
11648;BME280;5880;52.342;9.662;2023-03-20T03:14:45;101140.94;;;14.63;52.15
11648;BME280;5880;52.342;9.662;2023-03-20T03:17:14;101139.53;;;14.60;51.96
11648;BME280;5880;52.342;9.662;2023-03-20T03:19:46;101129.34;;;14.61;51.98
11648;BME280;5880;52.342;9.662;2023-03-20T03:22:14;101120.19;;;14.55;51.94
11648;BME280;5880;52.342;9.662;2023-03-20T03:24:52;101134.03;;;14.60;51.93
11648;BME280;5880;52.342;9.662;2023-03-20T03:27:23;101127.34;;;14.56;51.94
11648;BME280;5880;52.342;9.662;2023-03-20T03:30:06;101116.22;;;14.51;51.88
11648;BME280;5880;52.342;9.662;2023-03-20T03:32:44;101129.72;;;14.52;51.87
11648;BME280;5880;52.342;9.662;2023-03-20T03:35:18;101129.97;;;14.51;51.89
11648;BME280;5880;52.342;9.662;2023-03-20T03:38:03;101124.88;;;14.43;51.56
11648;BME280;5880;52.342;9.662;2023-03-20T03:43:37;101137.44;;;14.39;51.67
11648;BME280;5880;52.342;9.662;2023-03-20T03:46:15;101129.94;;;14.34;51.69
11648;BME280;5880;52.342;9.662;2023-03-20T03:48:52;101127.19;;;14.34;51.59
11648;BME280;5880;52.342;9.662;2023-03-20T03:51:24;101128.16;;;14.28;51.59
11648;BME280;5880;52.342;9.662;2023-03-20T03:54:04;101135.34;;;14.29;51.60
11648;BME280;5880;52.342;9.662;2023-03-20T03:56:36;101135.84;;;14.26;51.65
11648;BME280;5880;52.342;9.662;2023-03-20T03:59:09;101132.50;;;14.24;51.58
11648;BME280;5880;52.342;9.662;2023-03-20T04:01:40;101136.06;;;14.24;51.64
11648;BME280;5880;52.342;9.662;2023-03-20T04:04:12;101137.97;;;14.24;51.78
11648;BME280;5880;52.342;9.662;2023-03-20T04:06:39;101138.22;;;14.22;51.73
11648;BME280;5880;52.342;9.662;2023-03-20T04:09:07;101143.72;;;14.22;51.57
11648;BME280;5880;52.342;9.662;2023-03-20T04:11:32;101137.03;;;14.18;51.91
11648;BME280;5880;52.342;9.662;2023-03-20T04:14:00;101145.38;;;14.23;51.99
11648;BME280;5880;52.342;9.662;2023-03-20T04:16:25;101140.72;;;14.24;52.01
11648;BME280;5880;52.342;9.662;2023-03-20T04:18:52;101137.13;;;14.23;52.03
11648;BME280;5880;52.342;9.662;2023-03-20T04:21:18;101141.56;;;14.24;52.12
11648;BME280;5880;52.342;9.662;2023-03-20T04:23:44;101140.47;;;14.25;52.20
11648;BME280;5880;52.342;9.662;2023-03-20T04:26:10;101127.22;;;14.22;52.30
11648;BME280;5880;52.342;9.662;2023-03-20T04:28:36;101133.56;;;14.23;52.10
11648;BME280;5880;52.342;9.662;2023-03-20T04:31:02;101133.31;;;14.24;52.37
11648;BME280;5880;52.342;9.662;2023-03-20T04:33:28;101129.47;;;14.25;52.29
11648;BME280;5880;52.342;9.662;2023-03-20T04:35:55;101129.25;;;14.27;52.36
11648;BME280;5880;52.342;9.662;2023-03-20T04:38:22;101122.91;;;14.26;52.33
11648;BME280;5880;52.342;9.662;2023-03-20T04:40:49;101118.97;;;14.22;52.38
11648;BME280;5880;52.342;9.662;2023-03-20T04:43:15;101117.31;;;14.21;52.33
11648;BME280;5880;52.342;9.662;2023-03-20T04:45:41;101120.16;;;14.26;52.31
11648;BME280;5880;52.342;9.662;2023-03-20T04:48:08;101118.00;;;14.28;52.42
11648;BME280;5880;52.342;9.662;2023-03-20T04:50:34;101117.75;;;14.30;52.44
11648;BME280;5880;52.342;9.662;2023-03-20T04:52:59;101115.59;;;14.32;52.43
11648;BME280;5880;52.342;9.662;2023-03-20T04:55:25;101119.16;;;14.32;52.37
11648;BME280;5880;52.342;9.662;2023-03-20T04:57:51;101118.94;;;14.34;52.60
11648;BME280;5880;52.342;9.662;2023-03-20T05:00:17;101118.69;;;14.35;52.49
11648;BME280;5880;52.342;9.662;2023-03-20T05:02:43;101115.94;;;14.35;52.53
11648;BME280;5880;52.342;9.662;2023-03-20T05:05:09;101109.94;;;14.39;52.39
11648;BME280;5880;52.342;9.662;2023-03-20T05:07:35;101112.19;;;14.42;52.31
11648;BME280;5880;52.342;9.662;2023-03-20T05:10:02;101113.06;;;14.42;52.45
11648;BME280;5880;52.342;9.662;2023-03-20T05:12:28;101105.53;;;14.38;52.49
11648;BME280;5880;52.342;9.662;2023-03-20T05:14:53;101104.81;;;14.42;52.39
11648;BME280;5880;52.342;9.662;2023-03-20T05:17:21;101107.28;;;14.44;52.49
11648;BME280;5880;52.342;9.662;2023-03-20T05:19:47;101096.56;;;14.42;52.48
11648;BME280;5880;52.342;9.662;2023-03-20T05:22:17;101102.28;;;14.41;52.56
11648;BME280;5880;52.342;9.662;2023-03-20T05:24:43;101095.69;;;14.42;52.42
11648;BME280;5880;52.342;9.662;2023-03-20T05:27:09;101108.13;;;14.44;52.55
11648;BME280;5880;52.342;9.662;2023-03-20T05:29:35;101109.78;;;14.45;52.61
11648;BME280;5880;52.342;9.662;2023-03-20T05:32:01;101105.97;;;14.46;52.64
11648;BME280;5880;52.342;9.662;2023-03-20T05:34:26;101109.53;;;14.47;52.47
11648;BME280;5880;52.342;9.662;2023-03-20T05:36:53;101113.97;;;14.48;52.57
11648;BME280;5880;52.342;9.662;2023-03-20T05:39:19;101103.78;;;14.48;52.65
11648;BME280;5880;52.342;9.662;2023-03-20T05:41:45;101113.16;;;14.47;52.64
11648;BME280;5880;52.342;9.662;2023-03-20T05:44:10;101117.53;;;14.48;52.59
11648;BME280;5880;52.342;9.662;2023-03-20T05:46:37;101118.38;;;14.49;52.69
11648;BME280;5880;52.342;9.662;2023-03-20T05:49:03;101124.97;;;14.48;52.68
11648;BME280;5880;52.342;9.662;2023-03-20T05:51:29;101123.88;;;14.49;52.77
11648;BME280;5880;52.342;9.662;2023-03-20T05:53:54;101124.97;;;14.48;52.74
11648;BME280;5880;52.342;9.662;2023-03-20T05:56:20;101114.78;;;14.48;52.81
11648;BME280;5880;52.342;9.662;2023-03-20T05:58:46;101116.50;;;14.49;52.86
11648;BME280;5880;52.342;9.662;2023-03-20T06:01:11;101119.22;;;14.49;52.80
11648;BME280;5880;52.342;9.662;2023-03-20T06:03:40;101122.53;;;14.51;52.92
11648;BME280;5880;52.342;9.662;2023-03-20T06:06:07;101127.81;;;14.53;52.90
11648;BME280;5880;52.342;9.662;2023-03-20T06:08:32;101124.59;;;14.56;52.94
11648;BME280;5880;52.342;9.662;2023-03-20T06:11:01;101130.94;;;14.56;53.00
11648;BME280;5880;52.342;9.662;2023-03-20T06:13:27;101130.94;;;14.56;53.02
11648;BME280;5880;52.342;9.662;2023-03-20T06:15:53;101130.69;;;14.58;52.88
11648;BME280;5880;52.342;9.662;2023-03-20T06:18:18;101132.97;;;14.61;53.01
11648;BME280;5880;52.342;9.662;2023-03-20T06:20:44;101132.97;;;14.61;52.98
11648;BME280;5880;52.342;9.662;2023-03-20T06:23:10;101135.72;;;14.61;52.91
11648;BME280;5880;52.342;9.662;2023-03-20T06:25:36;101131.88;;;14.62;52.92
11648;BME280;5880;52.342;9.662;2023-03-20T06:28:03;101135.94;;;14.60;53.10
11648;BME280;5880;52.342;9.662;2023-03-20T06:30:28;101137.13;;;14.64;53.38
11648;BME280;5880;52.342;9.662;2023-03-20T06:32:54;101149.56;;;14.66;53.07
11648;BME280;5880;52.342;9.662;2023-03-20T06:35:20;101150.63;;;14.65;53.06
11648;BME280;5880;52.342;9.662;2023-03-20T06:37:45;101142.38;;;14.65;53.06
11648;BME280;5880;52.342;9.662;2023-03-20T06:40:11;101149.78;;;14.65;53.00
11648;BME280;5880;52.342;9.662;2023-03-20T06:42:37;101150.63;;;14.65;53.06
11648;BME280;5880;52.342;9.662;2023-03-20T06:45:03;101161.16;;;14.68;52.97
11648;BME280;5880;52.342;9.662;2023-03-20T06:47:29;101157.81;;;14.66;53.00
11648;BME280;5880;52.342;9.662;2023-03-20T06:49:55;101173.00;;;14.69;53.02
11648;BME280;5880;52.342;9.662;2023-03-20T06:52:20;101159.47;;;14.67;53.02
11648;BME280;5880;52.342;9.662;2023-03-20T06:54:47;101156.47;;;14.69;53.02
11648;BME280;5880;52.342;9.662;2023-03-20T06:57:15;101161.97;;;14.69;52.97
11648;BME280;5880;52.342;9.662;2023-03-20T06:59:42;101164.13;;;14.67;53.01
11648;BME280;5880;52.342;9.662;2023-03-20T07:02:09;101164.13;;;14.67;53.04
11648;BME280;5880;52.342;9.662;2023-03-20T07:04:36;101160.81;;;14.65;53.21
11648;BME280;5880;52.342;9.662;2023-03-20T07:07:01;101170.97;;;14.64;53.03
11648;BME280;5880;52.342;9.662;2023-03-20T07:09:27;101177.31;;;14.65;53.07
11648;BME280;5880;52.342;9.662;2023-03-20T07:11:53;101170.16;;;14.64;53.08
11648;BME280;5880;52.342;9.662;2023-03-20T07:14:19;101169.28;;;14.63;53.08
11648;BME280;5880;52.342;9.662;2023-03-20T07:16:44;101168.22;;;14.64;53.20
11648;BME280;5880;52.342;9.662;2023-03-20T07:19:10;101163.56;;;14.65;53.15
11648;BME280;5880;52.342;9.662;2023-03-20T07:21:37;101153.13;;;14.67;53.09
11648;BME280;5880;52.342;9.662;2023-03-20T07:24:03;101153.63;;;14.64;53.08
11648;BME280;5880;52.342;9.662;2023-03-20T07:26:31;101158.63;;;14.67;53.08
11648;BME280;5880;52.342;9.662;2023-03-20T07:28:56;101160.88;;;14.70;53.06
11648;BME280;5880;52.342;9.662;2023-03-20T07:31:25;101168.66;;;14.73;53.29
11648;BME280;5880;52.342;9.662;2023-03-20T07:33:51;101180.50;;;14.73;53.03
11648;BME280;5880;52.342;9.662;2023-03-20T07:36:17;101179.69;;;14.73;53.02
11648;BME280;5880;52.342;9.662;2023-03-20T07:38:43;101173.00;;;14.69;52.94
11648;BME280;5880;52.342;9.662;2023-03-20T07:41:09;101176.06;;;14.72;52.80
11648;BME280;5880;52.342;9.662;2023-03-20T07:43:34;101189.59;;;14.74;52.88
11648;BME280;5880;52.342;9.662;2023-03-20T07:46:06;101189.34;;;14.75;52.99
11648;BME280;5880;52.342;9.662;2023-03-20T07:48:33;101191.28;;;14.75;52.95
11648;BME280;5880;52.342;9.662;2023-03-20T07:51:00;101192.09;;;14.75;53.03
11648;BME280;5880;52.342;9.662;2023-03-20T07:53:26;101190.78;;;14.78;52.98
11648;BME280;5880;52.342;9.662;2023-03-20T07:55:52;101194.94;;;14.81;52.81
11648;BME280;5880;52.342;9.662;2023-03-20T07:58:17;101192.44;;;14.79;52.82
11648;BME280;5880;52.342;9.662;2023-03-20T08:00:43;101183.59;;;14.77;52.81
11648;BME280;5880;52.342;9.662;2023-03-20T08:03:09;101177.84;;;14.78;53.01
11648;BME280;5880;52.342;9.662;2023-03-20T08:05:35;101186.69;;;14.81;52.99
11648;BME280;5880;52.342;9.662;2023-03-20T08:08:02;101203.38;;;14.91;53.09
11648;BME280;5880;52.342;9.662;2023-03-20T08:10:28;101197.41;;;14.94;53.01
11648;BME280;5880;52.342;9.662;2023-03-20T08:12:53;101196.06;;;14.96;53.02
11648;BME280;5880;52.342;9.662;2023-03-20T08:15:20;101198.91;;;15.02;52.85
11648;BME280;5880;52.342;9.662;2023-03-20T08:17:46;101197.81;;;15.03;52.73
11648;BME280;5880;52.342;9.662;2023-03-20T08:20:15;101199.22;;;15.05;52.67
11648;BME280;5880;52.342;9.662;2023-03-20T08:22:43;101197.06;;;15.07;52.81
11648;BME280;5880;52.342;9.662;2023-03-20T08:25:10;101201.00;;;15.11;52.81
11648;BME280;5880;52.342;9.662;2023-03-20T08:27:36;101187.00;;;15.13;52.65
11648;BME280;5880;52.342;9.662;2023-03-20T08:30:04;101187.81;;;15.13;52.53
11648;BME280;5880;52.342;9.662;2023-03-20T08:32:30;101206.00;;;15.14;52.46
11648;BME280;5880;52.342;9.662;2023-03-20T08:34:55;101194.06;;;15.09;52.25
11648;BME280;5880;52.342;9.662;2023-03-20T08:37:21;101195.16;;;15.08;52.36
11648;BME280;5880;52.342;9.662;2023-03-20T08:39:47;101201.81;;;15.12;52.24
11648;BME280;5880;52.342;9.662;2023-03-20T08:42:13;101209.84;;;15.13;52.40
11648;BME280;5880;52.342;9.662;2023-03-20T08:44:42;101207.34;;;15.12;52.50
11648;BME280;5880;52.342;9.662;2023-03-20T08:47:08;101200.16;;;15.11;52.28
11648;BME280;5880;52.342;9.662;2023-03-20T08:49:35;101213.94;;;15.11;52.28
11648;BME280;5880;52.342;9.662;2023-03-20T08:52:01;101228.03;;;15.14;52.16
11648;BME280;5880;52.342;9.662;2023-03-20T08:54:27;101215.34;;;15.13;52.20
11648;BME280;5880;52.342;9.662;2023-03-20T08:56:53;101220.63;;;15.15;52.25
11648;BME280;5880;52.342;9.662;2023-03-20T08:59:18;101215.34;;;15.13;51.95
11648;BME280;5880;52.342;9.662;2023-03-20T09:01:45;101208.44;;;15.11;52.11
11648;BME280;5880;52.342;9.662;2023-03-20T09:04:12;101226.13;;;15.15;52.19
11648;BME280;5880;52.342;9.662;2023-03-20T09:06:39;101211.50;;;15.14;52.02
11648;BME280;5880;52.342;9.662;2023-03-20T09:09:05;101207.91;;;15.14;52.04
11648;BME280;5880;52.342;9.662;2023-03-20T09:11:32;101210.75;;;15.19;52.10
11648;BME280;5880;52.342;9.662;2023-03-20T09:13:58;101224.06;;;15.22;52.02
11648;BME280;5880;52.342;9.662;2023-03-20T09:16:26;101228.22;;;15.25;52.12
11648;BME280;5880;52.342;9.662;2023-03-20T09:18:52;101228.22;;;15.25;51.98
11648;BME280;5880;52.342;9.662;2023-03-20T09:21:18;101223.31;;;15.27;52.05
11648;BME280;5880;52.342;9.662;2023-03-20T09:23:44;101223.31;;;15.27;52.01
11648;BME280;5880;52.342;9.662;2023-03-20T09:26:10;101225.19;;;15.26;51.58
11648;BME280;5880;52.342;9.662;2023-03-20T09:28:35;101221.78;;;15.19;51.67
11648;BME280;5880;52.342;9.662;2023-03-20T09:31:04;101232.56;;;15.20;51.56
11648;BME280;5880;52.342;9.662;2023-03-20T09:33:30;101231.63;;;15.15;51.63
11648;BME280;5880;52.342;9.662;2023-03-20T09:35:56;101227.19;;;15.14;51.60
11648;BME280;5880;52.342;9.662;2023-03-20T09:38:22;101225.78;;;15.11;51.58
11648;BME280;5880;52.342;9.662;2023-03-20T09:41:02;101236.28;;;15.14;51.33
11648;BME280;5880;52.342;9.662;2023-03-20T09:44:09;101234.63;;;15.13;51.46
11648;BME280;5880;52.342;9.662;2023-03-20T09:47:07;101229.63;;;15.10;51.59
11648;BME280;5880;52.342;9.662;2023-03-20T09:49:52;101231.63;;;15.15;51.91
11648;BME280;5880;52.342;9.662;2023-03-20T09:52:31;101229.56;;;15.22;51.97
11648;BME280;5880;52.342;9.662;2023-03-20T09:55:07;101233.56;;;15.31;52.00
11648;BME280;5880;52.342;9.662;2023-03-20T09:57:49;101224.06;;;15.39;51.90
11648;BME280;5880;52.342;9.662;2023-03-20T10:00:25;101225.56;;;15.47;51.65
11648;BME280;5880;52.342;9.662;2023-03-20T10:03:14;101232.47;;;15.49;51.28
11648;BME280;5880;52.342;9.662;2023-03-20T10:05:56;101233.91;;;15.52;51.46
11648;BME280;5880;52.342;9.662;2023-03-20T10:08:35;101233.66;;;15.53;51.32
11648;BME280;5880;52.342;9.662;2023-03-20T10:14:30;101237.00;;;15.55;51.23
11648;BME280;5880;52.342;9.662;2023-03-20T10:20:24;101248.09;;;15.60;51.25
11648;BME280;5880;52.342;9.662;2023-03-20T10:23:05;101231.56;;;15.60;50.93
11648;BME280;5880;52.342;9.662;2023-03-20T10:25:36;101231.91;;;15.64;51.09
11648;BME280;5880;52.342;9.662;2023-03-20T10:28:21;101224.34;;;15.71;51.29
11648;BME280;5880;52.342;9.662;2023-03-20T10:31:26;101229.91;;;15.76;50.85
11648;BME280;5880;52.342;9.662;2023-03-20T10:37:49;101228.22;;;15.75;50.78
11648;BME280;5880;52.342;9.662;2023-03-20T10:40:28;101228.22;;;15.75;50.32
11648;BME280;5880;52.342;9.662;2023-03-20T10:43:04;101227.75;;;15.78;50.26
11648;BME280;5880;52.342;9.662;2023-03-20T10:45:43;101233.56;;;15.82;50.31
11648;BME280;5880;52.342;9.662;2023-03-20T10:48:30;101230.88;;;15.87;50.35
11648;BME280;5880;52.342;9.662;2023-03-20T10:51:01;101227.66;;;15.90;50.36
11648;BME280;5880;52.342;9.662;2023-03-20T10:53:43;101220.28;;;15.96;50.12
11648;BME280;5880;52.342;9.662;2023-03-20T10:56:30;101223.09;;;16.01;50.12
11648;BME280;5880;52.342;9.662;2023-03-20T10:59:04;101212.16;;;16.06;50.17
11648;BME280;5880;52.342;9.662;2023-03-20T11:01:31;101224.59;;;16.09;50.12
11648;BME280;5880;52.342;9.662;2023-03-20T11:03:57;101218.13;;;16.20;49.98
11648;BME280;5880;52.342;9.662;2023-03-20T11:06:39;101216.00;;;16.27;49.73
11648;BME280;5880;52.342;9.662;2023-03-20T11:09:21;101217.22;;;16.36;49.84
11648;BME280;5880;52.342;9.662;2023-03-20T11:11:51;101212.63;;;16.42;49.60
11648;BME280;5880;52.342;9.662;2023-03-20T11:14:21;101216.00;;;16.49;49.59
11648;BME280;5880;52.342;9.662;2023-03-20T11:16:54;101203.88;;;16.50;49.14
11648;BME280;5880;52.342;9.662;2023-03-20T11:19:22;101206.72;;;16.55;49.35
11648;BME280;5880;52.342;9.662;2023-03-20T11:21:55;101201.19;;;16.55;48.96
11648;BME280;5880;52.342;9.662;2023-03-20T11:24:42;101208.38;;;16.56;48.85
11648;BME280;5880;52.342;9.662;2023-03-20T11:27:15;101201.69;;;16.52;48.54
11648;BME280;5880;52.342;9.662;2023-03-20T11:29:45;101211.31;;;16.50;48.69
11648;BME280;5880;52.342;9.662;2023-03-20T11:32:39;101202.22;;;16.49;48.66
11648;BME280;5880;52.342;9.662;2023-03-20T11:37:54;101195.78;;;16.43;48.54
11648;BME280;5880;52.342;9.662;2023-03-20T11:40:31;101199.72;;;16.48;48.66
11648;BME280;5880;52.342;9.662;2023-03-20T11:45:43;101193.75;;;16.56;48.58
11648;BME280;5880;52.342;9.662;2023-03-20T11:48:35;101196.81;;;16.59;48.67
11648;BME280;5880;52.342;9.662;2023-03-20T11:51:09;101187.75;;;16.64;48.46
11648;BME280;5880;52.342;9.662;2023-03-20T11:54:04;101184.78;;;16.71;48.71
11648;BME280;5880;52.342;9.662;2023-03-20T11:56:33;101181.25;;;16.75;48.50
11648;BME280;5880;52.342;9.662;2023-03-20T11:59:13;101165.91;;;16.84;48.68
11648;BME280;5880;52.342;9.662;2023-03-20T12:01:44;101158.00;;;16.93;48.33
11648;BME280;5880;52.342;9.662;2023-03-20T12:04:36;101158.63;;;17.00;48.15
11648;BME280;5880;52.342;9.662;2023-03-20T12:07:16;101153.97;;;17.06;48.21
11648;BME280;5880;52.342;9.662;2023-03-20T12:09:57;101147.66;;;17.11;48.04
11648;BME280;5880;52.342;9.662;2023-03-20T12:20:44;101157.31;;;17.08;47.14
11648;BME280;5880;52.342;9.662;2023-03-20T12:26:11;101165.72;;;16.91;46.34
11648;BME280;5880;52.342;9.662;2023-03-20T12:28:49;101160.94;;;16.81;46.24
11648;BME280;5880;52.342;9.662;2023-03-20T12:31:23;101162.19;;;16.74;46.36
11648;BME280;5880;52.342;9.662;2023-03-20T12:33:59;101164.91;;;16.68;46.32
11648;BME280;5880;52.342;9.662;2023-03-20T12:36:38;101162.09;;;16.63;46.13
11648;BME280;5880;52.342;9.662;2023-03-20T12:39:13;101152.66;;;16.59;46.43
11648;BME280;5880;52.342;9.662;2023-03-20T12:50:35;101153.97;;;16.52;46.85
11648;BME280;5880;52.342;9.662;2023-03-20T12:53:41;101161.13;;;16.53;46.97
11648;BME280;5880;52.342;9.662;2023-03-20T12:59:28;101154.59;;;16.59;46.99
11648;BME280;5880;52.342;9.662;2023-03-20T13:05:02;101146.47;;;16.74;47.06
11648;BME280;5880;52.342;9.662;2023-03-20T13:10:18;101134.78;;;16.89;47.23
11648;BME280;5880;52.342;9.662;2023-03-20T13:13:09;101138.16;;;16.96;46.83
11648;BME280;5880;52.342;9.662;2023-03-20T13:18:53;101122.16;;;16.98;46.53
11648;BME280;5880;52.342;9.662;2023-03-20T13:21:31;101126.06;;;17.02;46.03
11648;BME280;5880;52.342;9.662;2023-03-20T13:26:59;101127.69;;;16.98;45.76
11648;BME280;5880;52.342;9.662;2023-03-20T13:29:43;101120.19;;;16.94;45.60
11648;BME280;5880;52.342;9.662;2023-03-20T13:36:01;101118.66;;;16.81;45.56
11648;BME280;5880;52.342;9.662;2023-03-20T13:38:36;101123.03;;;16.77;45.53
11648;BME280;5880;52.342;9.662;2023-03-20T13:41:07;101120.53;;;16.75;45.58
11648;BME280;5880;52.342;9.662;2023-03-20T13:43:42;101115.78;;;16.71;45.33
11648;BME280;5880;52.342;9.662;2023-03-20T13:46:18;101119.94;;;16.73;45.75
11648;BME280;5880;52.342;9.662;2023-03-20T13:48:45;101116.94;;;16.75;45.56
11648;BME280;5880;52.342;9.662;2023-03-20T13:51:35;101115.84;;;16.76;45.34
11648;BME280;5880;52.342;9.662;2023-03-20T13:56:54;101111.09;;;16.71;45.16
11648;BME280;5880;52.342;9.662;2023-03-20T14:05:20;101099.66;;;16.57;45.26
11648;BME280;5880;52.342;9.662;2023-03-20T14:07:49;101105.16;;;16.57;45.38
11648;BME280;5880;52.342;9.662;2023-03-20T14:12:52;101098.28;;;16.60;44.96
11648;BME280;5880;52.342;9.662;2023-03-20T14:15:19;101103.81;;;16.60;45.18
11648;BME280;5880;52.342;9.662;2023-03-20T14:17:48;101107.69;;;16.59;44.97
11648;BME280;5880;52.342;9.662;2023-03-20T14:20:40;101106.84;;;16.58;45.16
11648;BME280;5880;52.342;9.662;2023-03-20T14:23:20;101104.63;;;16.55;44.93
11648;BME280;5880;52.342;9.662;2023-03-20T14:25:54;101103.97;;;16.48;44.80
11648;BME280;5880;52.342;9.662;2023-03-20T14:30:49;101109.50;;;16.48;44.61
11648;BME280;5880;52.342;9.662;2023-03-20T14:38:38;101105.03;;;16.42;45.30
11648;BME280;5880;52.342;9.662;2023-03-20T14:41:23;101109.72;;;16.41;45.07
11648;BME280;5880;52.342;9.662;2023-03-20T14:44:06;101103.03;;;16.37;44.97
11648;BME280;5880;52.342;9.662;2023-03-20T14:47:01;101095.84;;;16.36;44.89
11648;BME280;5880;52.342;9.662;2023-03-20T14:57:43;101104.56;;;16.23;44.80
11648;BME280;5880;52.342;9.662;2023-03-20T15:00:24;101101.78;;;16.23;44.75
11648;BME280;5880;52.342;9.662;2023-03-20T15:03:14;101105.31;;;16.18;44.76
11648;BME280;5880;52.342;9.662;2023-03-20T15:05:41;101109.44;;;16.16;44.60
11648;BME280;5880;52.342;9.662;2023-03-20T15:08:21;101106.16;;;16.19;44.67
11648;BME280;5880;52.342;9.662;2023-03-20T15:10:56;101094.25;;;16.13;44.77
11648;BME280;5880;52.342;9.662;2023-03-20T15:13:25;101114.94;;;16.16;44.74
11648;BME280;5880;52.342;9.662;2023-03-20T15:16:03;101101.97;;;16.16;44.43
11648;BME280;5880;52.342;9.662;2023-03-20T15:18:53;101101.41;;;16.14;44.82
11648;BME280;5880;52.342;9.662;2023-03-20T15:21:36;101106.09;;;16.14;44.64